createdAt,value
2023-04-09T00:04:56.545Z,15.18
2023-04-09T00:09:58.829Z,13.85
2023-04-09T00:15:01.348Z,17.20
2023-04-09T00:20:04.533Z,13.85
2023-04-09T00:25:07.377Z,15.63
2023-04-09T00:30:10.116Z,14.05
2023-04-09T00:35:13.014Z,14.90
2023-04-09T00:40:15.392Z,16.23
2023-04-09T00:45:17.576Z,15.98
2023-04-09T00:50:20.864Z,13.25
2023-04-09T00:55:23.314Z,15.02
2023-04-09T01:00:25.915Z,13.77
2023-04-09T01:05:39.357Z,15.52
2023-04-09T01:10:56.117Z,14.68
2023-04-09T01:16:02.203Z,14.10
2023-04-09T01:21:14.730Z,15.30
2023-04-09T01:26:28.015Z,14.77
2023-04-09T01:31:37.124Z,18.77
2023-04-09T01:36:41.136Z,16.00
2023-04-09T01:41:43.829Z,18.38
2023-04-09T01:46:48.778Z,16.30
2023-04-09T01:51:51.484Z,13.77
2023-04-09T01:56:53.571Z,15.43
2023-04-09T02:02:06.774Z,15.20
2023-04-09T02:07:18.024Z,12.43
2023-04-09T02:12:22.043Z,16.90
2023-04-09T02:17:24.349Z,13.57
2023-04-09T02:22:26.538Z,15.90
2023-04-09T02:27:28.643Z,12.20
2023-04-09T02:32:30.779Z,11.43
2023-04-09T02:37:32.903Z,11.20
2023-04-09T02:42:35.172Z,13.68
2023-04-09T02:47:37.420Z,13.13
2023-04-09T02:52:39.699Z,14.52
2023-04-09T02:57:42.362Z,14.25
2023-04-09T03:02:44.797Z,14.60
2023-04-09T03:07:47.757Z,16.77
2023-04-09T03:12:49.869Z,18.13
2023-04-09T03:17:52.078Z,17.17
2023-04-09T03:22:54.232Z,19.17
2023-04-09T03:27:56.424Z,16.90
2023-04-09T03:32:59.923Z,17.60
2023-04-09T03:38:02.133Z,19.23
2023-04-09T03:43:04.670Z,17.38
2023-04-09T03:48:07.098Z,16.58
2023-04-09T03:53:09.329Z,17.83
2023-04-09T03:58:11.693Z,23.55
2023-04-09T04:03:15.118Z,20.08
2023-04-09T04:08:17.650Z,19.58
2023-04-09T04:13:19.916Z,19.48
2023-04-09T04:18:22.112Z,21.65
2023-04-09T04:23:24.255Z,21.48
2023-04-09T04:28:26.472Z,23.88
2023-04-09T04:33:28.926Z,23.00
2023-04-09T04:38:31.538Z,20.60
2023-04-09T04:43:33.735Z,21.60
2023-04-09T04:48:35.961Z,23.33
2023-04-09T04:53:38.548Z,18.30
2023-04-09T04:58:40.772Z,25.63
2023-04-09T05:03:43.126Z,14.25
2023-04-09T05:08:45.408Z,17.23
2023-04-09T05:13:47.492Z,14.98
2023-04-09T05:18:49.788Z,13.50
2023-04-09T05:23:52.251Z,16.40
2023-04-09T05:28:54.508Z,14.10
2023-04-09T05:33:56.814Z,16.02
2023-04-09T05:38:59.041Z,16.58
2023-04-09T05:44:01.360Z,17.80
2023-04-09T05:49:03.678Z,14.40
2023-04-09T05:54:05.855Z,16.77
2023-04-09T05:59:08.278Z,14.43
2023-04-09T06:04:10.714Z,12.75
2023-04-09T06:09:12.970Z,13.40
2023-04-09T06:14:18.354Z,14.18
2023-04-09T06:19:20.530Z,13.05
2023-04-09T06:24:22.884Z,14.73
2023-04-09T06:29:25.128Z,15.98
2023-04-09T06:34:27.272Z,13.23
2023-04-09T06:39:29.469Z,11.38
2023-04-09T06:44:31.616Z,16.25
2023-04-09T06:49:33.802Z,15.13
2023-04-09T06:54:36.282Z,16.67
2023-04-09T06:59:39.067Z,14.43
2023-04-09T07:04:41.795Z,9.93
2023-04-09T07:09:43.981Z,10.90
2023-04-09T07:14:46.110Z,10.70
2023-04-09T07:19:48.316Z,8.07
2023-04-09T07:24:54.455Z,13.68
2023-04-09T07:29:57.866Z,13.43
2023-04-09T07:35:00.238Z,9.68
2023-04-09T07:40:04.299Z,13.65
2023-04-09T07:45:07.310Z,8.23
2023-04-09T07:50:10.573Z,10.27
2023-04-09T07:55:12.683Z,9.25
2023-04-09T08:00:15.733Z,9.65
2023-04-09T08:05:17.980Z,9.13
2023-04-09T08:10:20.262Z,7.72
2023-04-09T08:15:22.606Z,7.50
2023-04-09T08:20:24.805Z,7.90
2023-04-09T08:25:27.356Z,7.55
2023-04-09T08:30:29.604Z,7.63
2023-04-09T08:35:32.086Z,7.90
2023-04-09T08:40:37.372Z,8.32
2023-04-09T08:45:42.020Z,6.90
2023-04-09T08:50:46.685Z,8.35
2023-04-09T08:55:49.493Z,8.88
2023-04-09T09:00:51.859Z,8.98
2023-04-09T09:05:54.022Z,12.85
2023-04-09T09:10:56.333Z,7.75
2023-04-09T09:16:15.403Z,7.32
2023-04-09T09:21:18.840Z,6.60
2023-04-09T09:26:31.154Z,8.77
2023-04-09T09:31:47.755Z,7.68
2023-04-09T09:36:50.487Z,7.35
2023-04-09T09:42:08.865Z,6.80
2023-04-09T09:47:13.948Z,11.48
2023-04-09T09:52:21.417Z,10.50
2023-04-09T09:57:28.147Z,8.07
2023-04-09T10:02:40.746Z,7.57
2023-04-09T10:07:43.957Z,16.27
2023-04-09T10:12:46.982Z,12.63
2023-04-09T10:17:49.357Z,11.75
2023-04-09T10:22:53.949Z,18.92
2023-04-09T10:28:03.002Z,48.10
2023-04-09T10:33:12.196Z,17.77
2023-04-09T10:38:17.228Z,13.00
2023-04-09T10:43:24.041Z,15.90
2023-04-09T10:48:27.029Z,24.63
2023-04-09T10:53:29.188Z,12.02
2023-04-09T10:58:31.348Z,20.20
2023-04-09T11:03:45.153Z,7.00
2023-04-09T11:08:48.615Z,6.25
2023-04-09T11:13:50.899Z,10.20
2023-04-09T11:18:56.546Z,8.48
2023-04-09T11:23:58.773Z,11.75
2023-04-09T11:29:14.012Z,7.07
2023-04-09T11:34:16.194Z,5.57
2023-04-09T11:39:18.366Z,8.70
2023-04-09T11:44:23.251Z,7.05
2023-04-09T11:49:25.657Z,5.80
2023-04-09T11:54:33.711Z,10.20
2023-04-09T11:59:39.006Z,10.88
2023-04-09T12:04:51.103Z,6.25
2023-04-09T12:09:54.052Z,8.50
2023-04-09T12:14:59.112Z,13.30
2023-04-09T12:20:02.588Z,6.50
2023-04-09T12:25:05.015Z,5.13
2023-04-09T12:30:07.859Z,4.95
2023-04-09T12:35:10.221Z,5.60
2023-04-09T12:40:16.041Z,6.78
2023-04-09T12:45:19.612Z,8.65
2023-04-09T12:50:21.751Z,7.63
2023-04-09T12:55:23.970Z,6.82
2023-04-09T13:00:26.229Z,9.00
2023-04-09T13:05:29.116Z,9.63
2023-04-09T13:10:31.952Z,7.95
2023-04-09T13:15:34.170Z,5.50
2023-04-09T13:20:36.778Z,11.15
2023-04-09T13:25:38.946Z,9.18
2023-04-09T13:30:41.365Z,8.20
2023-04-09T13:35:43.601Z,7.90
2023-04-09T13:40:46.361Z,5.68
2023-04-09T13:45:50.266Z,10.70
2023-04-09T13:50:52.652Z,8.90
2023-04-09T13:55:55.957Z,7.90
2023-04-09T14:00:58.209Z,10.63
2023-04-09T14:06:00.326Z,10.35
2023-04-09T14:11:02.697Z,7.38
2023-04-09T14:16:05.334Z,14.82
2023-04-09T14:21:10.256Z,11.20
2023-04-09T14:26:13.027Z,6.40
2023-04-09T14:31:15.293Z,13.63
2023-04-09T14:36:18.109Z,6.68
2023-04-09T14:41:20.630Z,7.57
2023-04-09T14:46:22.810Z,13.07
2023-04-09T14:51:25.139Z,12.35
2023-04-09T14:56:27.418Z,10.85
2023-04-09T15:01:30.723Z,9.63
2023-04-09T15:06:34.161Z,8.70
2023-04-09T15:11:36.294Z,16.90
2023-04-09T15:16:38.747Z,16.52
2023-04-09T15:21:41.100Z,14.35
2023-04-09T15:26:43.559Z,18.67
2023-04-09T15:31:45.821Z,13.63
2023-04-09T15:36:48.042Z,12.80
2023-04-09T15:41:50.472Z,13.43
2023-04-09T15:46:52.661Z,19.85
2023-04-09T15:51:54.885Z,14.45
2023-04-09T15:56:57.239Z,16.48
2023-04-09T16:01:59.629Z,22.10
2023-04-09T16:07:02.824Z,13.10
2023-04-09T16:12:05.052Z,15.88
2023-04-09T16:17:07.449Z,15.98
2023-04-09T16:22:10.552Z,12.90
2023-04-09T16:27:13.863Z,14.40
2023-04-09T16:32:16.390Z,10.43
2023-04-09T16:37:18.650Z,9.23
2023-04-09T16:42:20.865Z,9.50
2023-04-09T16:47:23.160Z,8.98
2023-04-09T16:52:25.472Z,11.43
2023-04-09T16:57:27.676Z,11.70
2023-04-09T17:02:30.156Z,13.05
2023-04-09T17:07:32.690Z,11.77
2023-04-09T17:12:35.093Z,13.52
2023-04-09T17:17:37.674Z,12.50
2023-04-09T17:22:39.972Z,12.40
2023-04-09T17:27:44.337Z,14.10
2023-04-09T17:32:46.722Z,14.43
2023-04-09T17:37:48.960Z,15.82
2023-04-09T17:42:51.233Z,10.38
2023-04-09T17:47:53.535Z,15.45
2023-04-09T17:52:55.737Z,13.20
2023-04-09T17:57:57.847Z,13.13
2023-04-09T18:03:00.420Z,17.38
2023-04-09T18:08:02.873Z,13.38
2023-04-09T18:13:05.116Z,9.73
2023-04-09T18:18:07.289Z,13.55
2023-04-09T18:23:09.432Z,19.10
2023-04-09T18:28:11.850Z,12.38
2023-04-09T18:33:14.336Z,26.20
2023-04-09T18:38:16.494Z,12.75
2023-04-09T18:43:18.655Z,10.98
2023-04-09T18:48:20.787Z,12.77
2023-04-09T18:53:23.034Z,11.32
2023-04-09T18:58:25.857Z,11.20
2023-04-09T19:03:30.674Z,14.35
2023-04-09T19:08:38.449Z,18.17
2023-04-09T19:13:54.677Z,19.67
2023-04-09T19:18:57.131Z,17.00
2023-04-09T19:24:00.850Z,16.00
2023-04-09T19:29:05.611Z,27.77
2023-04-09T19:34:07.816Z,18.15
2023-04-09T19:39:11.450Z,19.63
2023-04-09T19:44:13.535Z,18.25
2023-04-09T19:49:16.278Z,19.15
2023-04-09T19:54:18.813Z,20.50
2023-04-09T19:59:21.180Z,18.08
2023-04-09T20:04:26.297Z,15.02
2023-04-09T20:09:29.512Z,19.25
2023-04-09T20:14:31.981Z,17.23
2023-04-09T20:19:34.403Z,19.98
2023-04-09T20:24:38.960Z,20.55
2023-04-09T20:29:41.225Z,19.73
2023-04-09T20:34:43.930Z,16.98
2023-04-09T20:39:46.194Z,15.63
2023-04-09T20:44:48.508Z,13.88
2023-04-09T20:49:53.554Z,17.35
2023-04-09T20:54:57.389Z,14.48
2023-04-09T20:59:59.633Z,12.00
2023-04-09T21:05:11.804Z,10.35
2023-04-09T21:10:24.074Z,8.48
2023-04-09T21:15:26.473Z,7.80
2023-04-09T21:20:28.650Z,10.05
2023-04-09T21:25:30.924Z,8.25
2023-04-09T21:30:37.953Z,6.75
2023-04-09T21:35:40.157Z,8.75
2023-04-09T21:40:42.354Z,13.38
2023-04-09T21:45:44.795Z,10.63
2023-04-09T21:50:47.244Z,12.68
2023-04-09T21:55:49.376Z,9.70
2023-04-09T22:00:52.551Z,9.20
2023-04-09T22:05:54.747Z,10.55
2023-04-09T22:10:57.337Z,8.88
2023-04-09T22:15:59.561Z,9.85
2023-04-09T22:21:02.035Z,12.30
2023-04-09T22:26:04.311Z,10.88
2023-04-09T22:31:06.791Z,9.48
2023-04-09T22:36:11.901Z,8.52
2023-04-09T22:41:14.189Z,9.85
2023-04-09T22:46:16.707Z,8.38
2023-04-09T22:51:18.939Z,10.10
2023-04-09T22:56:22.573Z,8.88
2023-04-09T23:01:24.698Z,9.65
2023-04-09T23:06:26.895Z,9.10
2023-04-09T23:11:29.222Z,8.20
2023-04-09T23:16:31.519Z,9.10
2023-04-09T23:21:33.672Z,9.60
2023-04-09T23:26:35.892Z,10.52
2023-04-09T23:31:38.121Z,8.52
2023-04-09T23:36:41.084Z,8.35
2023-04-09T23:41:43.473Z,17.17
2023-04-09T23:46:46.155Z,8.38
2023-04-09T23:51:48.283Z,8.50
2023-04-09T23:56:50.365Z,7.13
